ITY170 LEMD-LSZH
Flight info
| Callsign | ITY170 |
|---|---|
| Flight time | N/A |
| Altitude | 38000 |
| Route | PINAR3N PINAR N870 SEGRE DCT YAKXU DCT RONNY DCT TOPTU DCT TOU DCT GAI DCT MEN DCT NINUN DCT LATAM DCT ETREK DCT LTP DCT SOPLO DCT OMASI DCT KINNI DCT LAMUR DCT GUDAX Z57 DOPIL DOPIL2G |
| Aircraft | A339/H-SDE3FGHIRWY/5532 |
Departure
| Time | N/A |
|---|---|
| Airport | Adolfo Suárez Madrid–Barajas Airport (LEMD) |
Arrival
| Time | 2026-05-06 18:17 |
|---|---|
| Airport | Zürich Airport (LSZH) |
| Time | Latitude | Longitude | Altitude | Speed | Heading |
|---|---|---|---|---|---|
| 2026-05-06 16:53 | 40.88977 | -2.88830 | 19935 ft | 406 kts | 69° |
| 2026-05-06 16:54 | 40.89909 | -2.85281 | 20367 ft | 410 kts | 69° |
| 2026-05-06 16:54 | 40.90845 | -2.81711 | 20829 ft | 413 kts | 69° |
| 2026-05-06 16:54 | 40.91791 | -2.78103 | 21272 ft | 417 kts | 69° |
| 2026-05-06 16:54 | 40.92743 | -2.74464 | 21728 ft | 420 kts | 69° |
| 2026-05-06 16:55 | 40.93700 | -2.70796 | 22186 ft | 424 kts | 69° |
| 2026-05-06 16:55 | 40.94665 | -2.67091 | 22664 ft | 427 kts | 69° |
| 2026-05-06 16:55 | 40.95636 | -2.63363 | 23138 ft | 431 kts | 69° |
| 2026-05-06 16:55 | 40.96615 | -2.59597 | 23571 ft | 434 kts | 70° |
| 2026-05-06 16:56 | 40.97597 | -2.55807 | 23947 ft | 438 kts | 70° |
| 2026-05-06 16:56 | 40.98588 | -2.51975 | 24314 ft | 441 kts | 70° |
| 2026-05-06 16:56 | 40.99585 | -2.48117 | 24678 ft | 445 kts | 70° |
| 2026-05-06 16:56 | 41.00595 | -2.44204 | 25031 ft | 449 kts | 70° |
| 2026-05-06 16:57 | 41.01710 | -2.40392 | 25352 ft | 452 kts | 61° |
| 2026-05-06 16:57 | 41.03418 | -2.36904 | 25714 ft | 450 kts | 47° |
| 2026-05-06 16:57 | 41.05638 | -2.34004 | 26069 ft | 448 kts | 35° |
| 2026-05-06 16:57 | 41.08035 | -2.31311 | 26406 ft | 453 kts | 38° |
| 2026-05-06 16:58 | 41.10389 | -2.28490 | 26772 ft | 457 kts | 39° |
| 2026-05-06 16:58 | 41.12740 | -2.25634 | 27118 ft | 461 kts | 38° |
| 2026-05-06 16:58 | 41.15126 | -2.22747 | 27458 ft | 465 kts | 38° |
| 2026-05-06 16:58 | 41.17530 | -2.19859 | 27810 ft | 468 kts | 38° |
| 2026-05-06 16:59 | 41.19955 | -2.16956 | 28157 ft | 471 kts | 38° |
| 2026-05-06 16:59 | 41.22374 | -2.14064 | 28464 ft | 475 kts | 38° |
| 2026-05-06 16:59 | 41.24837 | -2.11120 | 28775 ft | 478 kts | 38° |
| 2026-05-06 16:59 | 41.27319 | -2.08148 | 29099 ft | 481 kts | 38° |
| 2026-05-06 17:00 | 41.29812 | -2.05160 | 29419 ft | 485 kts | 38° |
| 2026-05-06 17:00 | 41.32327 | -2.02141 | 29753 ft | 488 kts | 38° |
| 2026-05-06 17:00 | 41.34856 | -1.99103 | 30066 ft | 492 kts | 38° |
| 2026-05-06 17:00 | 41.37401 | -1.96043 | 30368 ft | 494 kts | 38° |
| 2026-05-06 17:01 | 41.39951 | -1.92972 | 30704 ft | 496 kts | 38° |
| 2026-05-06 17:01 | 41.42516 | -1.89880 | 31005 ft | 499 kts | 38° |
| 2026-05-06 17:01 | 41.45093 | -1.86771 | 31297 ft | 501 kts | 38° |
| 2026-05-06 17:01 | 41.47686 | -1.83640 | 31609 ft | 504 kts | 38° |
| 2026-05-06 17:02 | 41.50285 | -1.80496 | 31903 ft | 506 kts | 38° |
| 2026-05-06 17:02 | 41.52901 | -1.77330 | 32191 ft | 509 kts | 38° |
| 2026-05-06 17:02 | 41.55528 | -1.74148 | 32457 ft | 511 kts | 39° |
| 2026-05-06 17:02 | 41.58169 | -1.70943 | 32672 ft | 514 kts | 39° |
| 2026-05-06 17:03 | 41.60820 | -1.67723 | 32912 ft | 516 kts | 39° |
| 2026-05-06 17:03 | 41.63449 | -1.64527 | 33070 ft | 518 kts | 39° |
| 2026-05-06 17:03 | 41.66124 | -1.61269 | 33287 ft | 519 kts | 39° |
| 2026-05-06 17:03 | 41.68796 | -1.58012 | 33451 ft | 520 kts | 39° |
| 2026-05-06 17:04 | 41.71474 | -1.54743 | 33638 ft | 521 kts | 39° |
| 2026-05-06 17:04 | 41.74152 | -1.51472 | 33798 ft | 521 kts | 39° |
| 2026-05-06 17:04 | 41.76824 | -1.48203 | 34034 ft | 521 kts | 39° |
| 2026-05-06 17:04 | 41.79499 | -1.44927 | 34222 ft | 520 kts | 39° |
| 2026-05-06 17:05 | 41.82165 | -1.41656 | 34434 ft | 519 kts | 39° |
| 2026-05-06 17:05 | 41.84822 | -1.38395 | 34659 ft | 518 kts | 39° |
| 2026-05-06 17:05 | 41.86614 | -1.36192 | 34783 ft | 518 kts | 39° |
| 2026-05-06 17:05 | 41.89269 | -1.32926 | 34971 ft | 517 kts | 39° |
| 2026-05-06 17:06 | 41.91883 | -1.29708 | 35147 ft | 517 kts | 39° |
| 2026-05-06 17:06 | 41.94531 | -1.26444 | 35348 ft | 516 kts | 40° |
| 2026-05-06 17:06 | 41.97179 | -1.23176 | 35518 ft | 516 kts | 40° |
| 2026-05-06 17:06 | 41.99816 | -1.19917 | 35707 ft | 515 kts | 40° |
| 2026-05-06 17:07 | 42.02456 | -1.16651 | 35872 ft | 515 kts | 40° |
| 2026-05-06 17:07 | 42.05093 | -1.13385 | 36066 ft | 515 kts | 40° |
| 2026-05-06 17:07 | 42.07727 | -1.10118 | 36231 ft | 514 kts | 40° |
| 2026-05-06 17:07 | 42.10353 | -1.06857 | 36403 ft | 514 kts | 40° |
| 2026-05-06 17:08 | 42.12988 | -1.03581 | 36576 ft | 514 kts | 40° |
| 2026-05-06 17:08 | 42.15617 | -1.00310 | 36761 ft | 513 kts | 40° |
| 2026-05-06 17:08 | 42.18236 | -0.97046 | 36927 ft | 513 kts | 40° |
| 2026-05-06 17:08 | 42.20865 | -0.93767 | 37097 ft | 513 kts | 40° |
| 2026-05-06 17:09 | 42.23484 | -0.90496 | 37273 ft | 513 kts | 40° |
| 2026-05-06 17:09 | 42.26092 | -0.87235 | 37453 ft | 512 kts | 40° |
| 2026-05-06 17:09 | 42.28714 | -0.83952 | 37601 ft | 513 kts | 40° |
| 2026-05-06 17:09 | 42.31331 | -0.80672 | 37774 ft | 512 kts | 41° |
| 2026-05-06 17:10 | 42.33907 | -0.77440 | 37845 ft | 514 kts | 41° |
| 2026-05-06 17:10 | 42.39166 | -0.70829 | 37915 ft | 517 kts | 41° |
| 2026-05-06 17:11 | 42.44446 | -0.64175 | 37924 ft | 520 kts | 41° |
| 2026-05-06 17:11 | 42.49759 | -0.57463 | 37924 ft | 522 kts | 41° |
| 2026-05-06 17:12 | 42.55087 | -0.50716 | 37934 ft | 523 kts | 41° |
| 2026-05-06 17:12 | 42.60372 | -0.44007 | 37939 ft | 523 kts | 41° |
| 2026-05-06 17:13 | 42.65689 | -0.37241 | 37951 ft | 523 kts | 41° |
| 2026-05-06 17:13 | 42.70982 | -0.30488 | 37961 ft | 521 kts | 41° |
| 2026-05-06 17:14 | 42.76281 | -0.23716 | 37952 ft | 522 kts | 41° |
| 2026-05-06 17:14 | 42.81242 | -0.16459 | 37974 ft | 525 kts | 51° |
| 2026-05-06 17:15 | 42.85568 | -0.08425 | 37996 ft | 524 kts | 52° |
| 2026-05-06 17:15 | 42.89879 | -0.00490 | 37995 ft | 525 kts | 52° |
| 2026-05-06 17:16 | 42.94230 | 0.07544 | 38006 ft | 526 kts | 53° |
| 2026-05-06 17:16 | 42.98565 | 0.15594 | 38012 ft | 526 kts | 53° |
| 2026-05-06 17:17 | 43.02900 | 0.23668 | 38004 ft | 527 kts | 53° |
| 2026-05-06 17:17 | 43.07222 | 0.31745 | 38006 ft | 526 kts | 53° |
| 2026-05-06 17:18 | 43.11536 | 0.39828 | 38003 ft | 526 kts | 53° |
| 2026-05-06 17:18 | 43.15845 | 0.47924 | 37994 ft | 525 kts | 53° |
| 2026-05-06 17:19 | 43.20143 | 0.56021 | 37989 ft | 525 kts | 53° |
| 2026-05-06 17:19 | 43.24405 | 0.64071 | 37983 ft | 524 kts | 53° |
| 2026-05-06 17:20 | 43.28686 | 0.72181 | 37982 ft | 524 kts | 53° |
| 2026-05-06 17:20 | 43.32966 | 0.80308 | 37977 ft | 524 kts | 53° |
| 2026-05-06 17:21 | 43.37224 | 0.88417 | 37968 ft | 523 kts | 53° |
| 2026-05-06 17:21 | 43.41446 | 0.96482 | 37975 ft | 522 kts | 53° |
| 2026-05-06 17:22 | 43.45685 | 1.04602 | 37975 ft | 522 kts | 54° |
| 2026-05-06 17:22 | 43.49916 | 1.12727 | 37947 ft | 522 kts | 54° |
| 2026-05-06 17:23 | 43.54140 | 1.20861 | 37947 ft | 522 kts | 54° |
| 2026-05-06 17:23 | 43.58361 | 1.29011 | 37957 ft | 522 kts | 54° |
| 2026-05-06 17:24 | 43.62548 | 1.37119 | 37965 ft | 521 kts | 54° |
| 2026-05-06 17:24 | 43.66756 | 1.45289 | 37973 ft | 521 kts | 54° |
| 2026-05-06 17:25 | 43.70951 | 1.53457 | 37959 ft | 522 kts | 54° |
| 2026-05-06 17:25 | 43.75146 | 1.61649 | 37955 ft | 522 kts | 54° |
| 2026-05-06 17:26 | 43.79332 | 1.69845 | 37952 ft | 521 kts | 54° |
| 2026-05-06 17:26 | 43.83514 | 1.78057 | 37943 ft | 521 kts | 54° |
| 2026-05-06 17:27 | 43.87689 | 1.86277 | 37946 ft | 521 kts | 54° |
| 2026-05-06 17:27 | 43.91862 | 1.94518 | 37944 ft | 521 kts | 54° |
| 2026-05-06 17:28 | 43.95999 | 2.02710 | 37945 ft | 521 kts | 54° |
| 2026-05-06 17:28 | 44.00153 | 2.10960 | 37945 ft | 521 kts | 54° |
| 2026-05-06 17:29 | 44.04303 | 2.19224 | 37947 ft | 521 kts | 55° |
| 2026-05-06 17:29 | 44.08455 | 2.27517 | 37954 ft | 522 kts | 55° |
| 2026-05-06 17:30 | 44.12601 | 2.35819 | 37956 ft | 522 kts | 55° |
| 2026-05-06 17:30 | 44.16711 | 2.44077 | 37951 ft | 521 kts | 55° |
| 2026-05-06 17:31 | 44.20847 | 2.52407 | 37946 ft | 521 kts | 55° |
| 2026-05-06 17:31 | 44.24967 | 2.60729 | 37941 ft | 521 kts | 55° |
| 2026-05-06 17:32 | 44.29077 | 2.69054 | 37942 ft | 521 kts | 55° |
| 2026-05-06 17:32 | 44.33154 | 2.77338 | 37935 ft | 520 kts | 55° |
| 2026-05-06 17:33 | 44.37252 | 2.85687 | 37940 ft | 520 kts | 55° |
| 2026-05-06 17:33 | 44.41338 | 2.94037 | 37935 ft | 520 kts | 55° |
| 2026-05-06 17:34 | 44.45419 | 3.02399 | 37940 ft | 520 kts | 55° |
| 2026-05-06 17:34 | 44.49491 | 3.10768 | 37933 ft | 519 kts | 55° |
| 2026-05-06 17:35 | 44.53556 | 3.19147 | 37931 ft | 519 kts | 56° |
| 2026-05-06 17:35 | 44.57582 | 3.27470 | 37926 ft | 518 kts | 56° |
| 2026-05-06 17:36 | 44.63651 | 3.40060 | 37924 ft | 518 kts | 56° |
| 2026-05-06 17:36 | 44.67678 | 3.48445 | 37918 ft | 518 kts | 56° |
| 2026-05-06 17:37 | 44.71708 | 3.56861 | 37916 ft | 518 kts | 56° |
| 2026-05-06 17:37 | 44.75707 | 3.65237 | 37907 ft | 518 kts | 56° |
| 2026-05-06 17:38 | 44.79720 | 3.73668 | 37908 ft | 518 kts | 56° |
| 2026-05-06 17:38 | 44.83724 | 3.82102 | 37964 ft | 518 kts | 56° |
| 2026-05-06 17:39 | 44.87728 | 3.90566 | 37911 ft | 518 kts | 56° |
| 2026-05-06 17:39 | 44.91694 | 3.98969 | 37908 ft | 517 kts | 56° |
| 2026-05-06 17:40 | 44.95867 | 4.07235 | 37906 ft | 516 kts | 51° |
| 2026-05-06 17:40 | 45.00319 | 4.15218 | 37907 ft | 516 kts | 51° |
| 2026-05-06 17:41 | 45.04710 | 4.23238 | 37904 ft | 515 kts | 52° |
| 2026-05-06 17:41 | 45.09058 | 4.31305 | 37899 ft | 515 kts | 52° |
| 2026-05-06 17:42 | 45.13394 | 4.39394 | 37902 ft | 515 kts | 52° |
| 2026-05-06 17:42 | 45.17702 | 4.47451 | 37905 ft | 515 kts | 52° |
| 2026-05-06 17:43 | 45.22026 | 4.55560 | 37904 ft | 515 kts | 53° |
| 2026-05-06 17:43 | 45.26346 | 4.63684 | 37900 ft | 515 kts | 53° |
| 2026-05-06 17:44 | 45.30658 | 4.71815 | 37897 ft | 515 kts | 53° |
| 2026-05-06 17:44 | 45.34967 | 4.79965 | 37902 ft | 516 kts | 53° |
| 2026-05-06 17:45 | 45.39276 | 4.88137 | 37903 ft | 516 kts | 53° |
| 2026-05-06 17:45 | 45.43571 | 4.96307 | 37904 ft | 516 kts | 53° |
| 2026-05-06 17:46 | 45.47849 | 5.04469 | 37912 ft | 516 kts | 53° |
| 2026-05-06 17:46 | 45.52141 | 5.12681 | 37907 ft | 517 kts | 53° |
| 2026-05-06 17:47 | 45.56428 | 5.20906 | 37905 ft | 517 kts | 53° |
| 2026-05-06 17:47 | 45.60722 | 5.29170 | 37907 ft | 517 kts | 53° |
| 2026-05-06 17:48 | 45.65005 | 5.37435 | 37909 ft | 517 kts | 53° |
| 2026-05-06 17:48 | 45.69290 | 5.45730 | 37907 ft | 518 kts | 53° |
| 2026-05-06 17:49 | 45.73566 | 5.54031 | 37907 ft | 518 kts | 54° |
| 2026-05-06 17:49 | 45.77810 | 5.62293 | 37913 ft | 519 kts | 54° |
| 2026-05-06 17:50 | 45.82084 | 5.70641 | 37908 ft | 519 kts | 54° |
| 2026-05-06 17:50 | 45.86357 | 5.79009 | 37911 ft | 520 kts | 54° |
| 2026-05-06 17:51 | 45.89899 | 5.85964 | 37914 ft | 520 kts | 54° |
| 2026-05-06 17:51 | 45.94161 | 5.94357 | 37912 ft | 520 kts | 54° |
| 2026-05-06 17:52 | 45.98426 | 6.02782 | 37915 ft | 520 kts | 54° |
| 2026-05-06 17:52 | 46.02676 | 6.11200 | 37913 ft | 521 kts | 54° |
| 2026-05-06 17:53 | 46.06926 | 6.19645 | 37911 ft | 521 kts | 54° |
| 2026-05-06 17:53 | 46.11151 | 6.28065 | 37912 ft | 521 kts | 54° |
| 2026-05-06 17:54 | 46.15384 | 6.36527 | 37914 ft | 521 kts | 54° |
| 2026-05-06 17:54 | 46.19619 | 6.45017 | 37916 ft | 521 kts | 55° |
| 2026-05-06 17:55 | 46.23848 | 6.53523 | 37915 ft | 521 kts | 55° |
| 2026-05-06 17:55 | 46.28301 | 6.61777 | 37914 ft | 521 kts | 49° |
| 2026-05-06 17:56 | 46.32960 | 6.69565 | 37908 ft | 521 kts | 49° |
| 2026-05-06 17:56 | 46.37689 | 6.77511 | 37780 ft | 518 kts | 50° |
| 2026-05-06 17:57 | 46.40023 | 6.81469 | 37316 ft | 515 kts | 50° |
| 2026-05-06 17:57 | 46.42321 | 6.85393 | 37023 ft | 507 kts | 50° |
| 2026-05-06 17:57 | 46.44592 | 6.89285 | 36768 ft | 506 kts | 50° |
| 2026-05-06 17:57 | 46.46877 | 6.93213 | 36517 ft | 510 kts | 50° |
| 2026-05-06 17:58 | 46.49170 | 6.97159 | 36258 ft | 512 kts | 50° |
| 2026-05-06 17:58 | 46.51462 | 7.01111 | 36010 ft | 512 kts | 50° |
| 2026-05-06 17:58 | 46.53749 | 7.05057 | 35757 ft | 511 kts | 51° |
| 2026-05-06 17:58 | 46.56035 | 7.09005 | 35333 ft | 509 kts | 51° |
| 2026-05-06 17:59 | 46.58313 | 7.12947 | 34894 ft | 505 kts | 51° |
| 2026-05-06 17:59 | 46.60566 | 7.16851 | 34461 ft | 502 kts | 51° |
| 2026-05-06 17:59 | 46.62775 | 7.20682 | 34002 ft | 499 kts | 51° |
| 2026-05-06 17:59 | 46.65024 | 7.24591 | 33479 ft | 495 kts | 51° |
| 2026-05-06 18:00 | 46.67195 | 7.28374 | 32782 ft | 489 kts | 51° |
| 2026-05-06 18:00 | 46.69372 | 7.32171 | 31846 ft | 487 kts | 52° |
| 2026-05-06 18:00 | 46.71545 | 7.35965 | 30688 ft | 489 kts | 52° |
| 2026-05-06 18:00 | 46.73728 | 7.39783 | 29390 ft | 492 kts | 52° |
| 2026-05-06 18:01 | 46.75924 | 7.43625 | 27972 ft | 492 kts | 52° |
| 2026-05-06 18:01 | 46.78113 | 7.47460 | 26654 ft | 490 kts | 52° |
| 2026-05-06 18:01 | 46.80292 | 7.51283 | 25381 ft | 487 kts | 52° |
| 2026-05-06 18:01 | 46.82440 | 7.55057 | 24295 ft | 480 kts | 52° |
| 2026-05-06 18:02 | 46.84555 | 7.58776 | 23273 ft | 470 kts | 52° |
| 2026-05-06 18:02 | 46.86604 | 7.62389 | 22083 ft | 463 kts | 52° |
| 2026-05-06 18:02 | 46.88644 | 7.65991 | 20872 ft | 455 kts | 52° |
| 2026-05-06 18:02 | 46.90648 | 7.69535 | 19711 ft | 449 kts | 52° |
| 2026-05-06 18:03 | 46.92618 | 7.73025 | 18594 ft | 442 kts | 51° |
| 2026-05-06 18:03 | 46.94568 | 7.76480 | 17379 ft | 436 kts | 51° |
| 2026-05-06 18:03 | 46.96490 | 7.79892 | 16192 ft | 428 kts | 51° |
| 2026-05-06 18:03 | 46.98369 | 7.83232 | 14987 ft | 422 kts | 51° |
| 2026-05-06 18:04 | 47.00196 | 7.86485 | 13824 ft | 416 kts | 50° |
| 2026-05-06 18:04 | 47.02045 | 7.89778 | 12540 ft | 410 kts | 50° |
| 2026-05-06 18:04 | 47.03817 | 7.92938 | 11352 ft | 403 kts | 50° |
| 2026-05-06 18:04 | 47.05580 | 7.96086 | 10222 ft | 396 kts | 50° |
| 2026-05-06 18:05 | 47.07311 | 7.99178 | 9033 ft | 389 kts | 50° |
| 2026-05-06 18:05 | 47.09024 | 8.02176 | 8020 ft | 376 kts | 45° |
| 2026-05-06 18:05 | 47.11044 | 8.04399 | 7494 ft | 351 kts | 24° |
| 2026-05-06 18:05 | 47.13278 | 8.05388 | 7214 ft | 325 kts | 4° |
| 2026-05-06 18:06 | 47.15451 | 8.05368 | 7070 ft | 303 kts | 352° |
| 2026-05-06 18:06 | 47.17583 | 8.05163 | 7005 ft | 309 kts | 353° |
| 2026-05-06 18:06 | 47.19733 | 8.05121 | 6985 ft | 311 kts | 2° |
| 2026-05-06 18:06 | 47.21817 | 8.05968 | 6812 ft | 313 kts | 19° |
| 2026-05-06 18:07 | 47.23791 | 8.07247 | 6391 ft | 310 kts | 22° |
| 2026-05-06 18:07 | 47.25748 | 8.08606 | 5772 ft | 310 kts | 22° |
| 2026-05-06 18:07 | 47.27679 | 8.09959 | 5270 ft | 303 kts | 22° |
| 2026-05-06 18:07 | 47.29595 | 8.11289 | 5067 ft | 308 kts | 22° |
| 2026-05-06 18:08 | 47.31542 | 8.12613 | 5008 ft | 307 kts | 21° |
| 2026-05-06 18:08 | 47.33482 | 8.13920 | 4952 ft | 304 kts | 21° |
| 2026-05-06 18:08 | 47.35399 | 8.15207 | 4545 ft | 302 kts | 21° |
| 2026-05-06 18:08 | 47.37275 | 8.16471 | 4139 ft | 298 kts | 21° |
| 2026-05-06 18:09 | 47.39177 | 8.17757 | 4025 ft | 301 kts | 21° |
| 2026-05-06 18:09 | 47.41073 | 8.19038 | 4002 ft | 298 kts | 21° |
| 2026-05-06 18:09 | 47.42952 | 8.20311 | 3996 ft | 296 kts | 21° |
| 2026-05-06 18:09 | 47.44830 | 8.21585 | 4001 ft | 297 kts | 21° |
| 2026-05-06 18:10 | 47.46705 | 8.22858 | 3996 ft | 294 kts | 21° |
| 2026-05-06 18:10 | 47.48492 | 8.24080 | 3996 ft | 271 kts | 21° |
| 2026-05-06 18:10 | 47.50171 | 8.25225 | 4005 ft | 268 kts | 21° |
| 2026-05-06 18:10 | 47.51848 | 8.26360 | 3999 ft | 258 kts | 21° |
| 2026-05-06 18:11 | 47.53474 | 8.27468 | 4005 ft | 259 kts | 21° |
| 2026-05-06 18:11 | 47.55112 | 8.28583 | 3997 ft | 255 kts | 20° |
| 2026-05-06 18:11 | 47.56662 | 8.29639 | 3998 ft | 236 kts | 20° |
| 2026-05-06 18:11 | 47.58097 | 8.30615 | 3993 ft | 218 kts | 20° |
| 2026-05-06 18:12 | 47.59423 | 8.31524 | 3989 ft | 204 kts | 19° |
| 2026-05-06 18:12 | 47.60658 | 8.32591 | 3984 ft | 209 kts | 40° |
| 2026-05-06 18:12 | 47.61308 | 8.34491 | 3997 ft | 212 kts | 84° |
| 2026-05-06 18:12 | 47.61015 | 8.36562 | 4004 ft | 206 kts | 127° |
| 2026-05-06 18:13 | 47.59992 | 8.37955 | 4001 ft | 199 kts | 153° |
| 2026-05-06 18:13 | 47.58869 | 8.39101 | 3997 ft | 192 kts | 150° |
| 2026-05-06 18:13 | 47.57859 | 8.40328 | 4014 ft | 190 kts | 146° |
| 2026-05-06 18:13 | 47.56897 | 8.41677 | 3892 ft | 193 kts | 142° |
| 2026-05-06 18:14 | 47.55928 | 8.43013 | 3639 ft | 185 kts | 144° |
| 2026-05-06 18:14 | 47.55028 | 8.44254 | 3369 ft | 169 kts | 142° |
| 2026-05-06 18:14 | 47.54159 | 8.45433 | 3160 ft | 172 kts | 142° |
| 2026-05-06 18:14 | 47.53299 | 8.46620 | 2937 ft | 165 kts | 141° |
| 2026-05-06 18:15 | 47.52460 | 8.47777 | 2716 ft | 166 kts | 143° |
| 2026-05-06 18:15 | 47.51624 | 8.48918 | 2480 ft | 161 kts | 141° |
| 2026-05-06 18:15 | 47.50806 | 8.50046 | 2225 ft | 156 kts | 140° |
| 2026-05-06 18:15 | 47.50010 | 8.51133 | 2010 ft | 159 kts | 140° |
| 2026-05-06 18:16 | 47.49194 | 8.52251 | 1790 ft | 161 kts | 140° |
| 2026-05-06 18:16 | 47.48402 | 8.53347 | 1501 ft | 153 kts | 139° |
| 2026-05-06 18:16 | 47.47640 | 8.54372 | 1407 ft | 129 kts | 139° |
| 2026-05-06 18:16 | 47.47123 | 8.55065 | 1409 ft | 71 kts | 138° |
| 2026-05-06 18:17 | 47.46887 | 8.55406 | 1408 ft | 37 kts | 136° |
| 2026-05-06 18:17 | 47.46697 | 8.55621 | 1411 ft | 35 kts | 152° |
| 2026-05-06 18:17 | 47.46478 | 8.55722 | 1406 ft | 25 kts | 171° |
| 2026-05-06 18:17 | 47.46461 | 8.55727 | 1408 ft | 0 kts | 170° |
| 2026-05-06 18:18 | 47.46460 | 8.55727 | 1407 ft | 1 kts | 171° |
| 2026-05-06 18:18 | 47.46414 | 8.55741 | 1406 ft | 15 kts | 165° |
| 2026-05-06 18:18 | 47.46288 | 8.55871 | 1413 ft | 28 kts | 141° |
| 2026-05-06 18:19 | 47.46096 | 8.55987 | 1405 ft | 32 kts | 183° |
| 2026-05-06 18:19 | 47.45865 | 8.55917 | 1412 ft | 36 kts | 199° |
| 2026-05-06 18:19 | 47.45648 | 8.55737 | 1411 ft | 37 kts | 250° |
| 2026-05-06 18:19 | 47.45524 | 8.55456 | 1409 ft | 35 kts | 206° |
| 2026-05-06 18:20 | 47.45430 | 8.55469 | 1405 ft | 11 kts | 162° |
| 2026-05-06 18:20 | 47.45356 | 8.55516 | 1411 ft | 13 kts | 155° |
| 2026-05-06 18:20 | 47.45284 | 8.55616 | 1405 ft | 14 kts | 99° |
| 2026-05-06 18:20 | 47.45266 | 8.55766 | 1403 ft | 15 kts | 101° |
| 2026-05-06 18:21 | 47.45247 | 8.55879 | 1404 ft | 5 kts | 119° |
| 2026-05-06 18:21 | 47.45220 | 8.55886 | 1408 ft | 4 kts | 175° |
| 2026-05-06 18:21 | 47.45187 | 8.55883 | 1409 ft | 5 kts | 185° |
| 2026-05-06 18:21 | 47.45165 | 8.55879 | 1409 ft | 0 kts | 185° |
| 2026-05-06 18:22 | 47.45168 | 8.55879 | 1403 ft | 3 kts | 187° |
| 2026-05-06 18:22 | 47.45205 | 8.55899 | 1405 ft | 8 kts | 195° |
| 2026-05-06 18:23 | 47.45206 | 8.55903 | 1412 ft | 5 kts | 185° |
| 2026-05-06 18:23 | 47.45160 | 8.55897 | 1410 ft | 2 kts | 186° |